Time;durP1;ratioP1;P1;durP2;ratioP2;P2;SDS_P1;SDS_P2;PMS_P1;PMS_P2;Temp;Humidity;BMP_temperature;BMP_pressure;BME280_temperature;BME280_humidity;BME280_pressure;Samples;Min_cycle;Max_cycle;Signal;HPM_P1;HPM_P2
2021/11/29 00:00:32;;;;;;;0.60;0.60;;;2.30;99.90;;;;;;4974752;28;20114;-73
2021/11/29 00:03:04;;;;;;;0.30;0.30;;;2.20;99.90;;;;;;4992179;28;20088;-73
2021/11/29 00:05:30;;;;;;;0.68;0.68;;;2.00;99.90;;;;;;4991928;28;20036;-73
2021/11/29 00:07:59;;;;;;;0.30;0.30;;;2.00;99.90;;;;;;4974635;28;20117;-73
2021/11/29 00:10:26;;;;;;;0.50;0.50;;;2.10;99.90;;;;;;4974696;28;20556;-74
2021/11/29 00:12:51;;;;;;;7.68;2.13;;;2.00;99.90;;;;;;4974644;28;20505;-73
2021/11/29 00:15:17;;;;;;;0.80;0.80;;;2.00;99.90;;;;;;4974735;28;20102;-73
2021/11/29 00:17:43;;;;;;;2.15;0.93;;;1.90;99.90;;;;;;4991972;28;20394;-73
2021/11/29 00:20:10;;;;;;;0.77;0.75;;;1.90;99.90;;;;;;4995616;28;20027;-73
2021/11/29 00:22:36;;;;;;;0.30;0.30;;;2.00;99.90;;;;;;4978291;28;20031;-73
2021/11/29 00:25:03;;;;;;;0.73;0.73;;;2.00;99.90;;;;;;4995687;28;20033;-73
2021/11/29 00:27:29;;;;;;;2.15;2.00;;;2.20;99.90;;;;;;4995641;28;20478;-73
2021/11/29 00:29:55;;;;;;;0.65;0.65;;;2.10;99.90;;;;;;4978163;28;20018;-73
2021/11/29 00:32:21;;;;;;;0.50;0.50;;;2.10;99.90;;;;;;4995454;28;20026;-73
2021/11/29 00:34:46;;;;;;;0.30;0.30;;;2.10;99.90;;;;;;4995208;28;20471;-73
2021/11/29 00:37:12;;;;;;;0.43;0.43;;;1.90;99.90;;;;;;4978204;28;20085;-73
2021/11/29 00:39:38;;;;;;;0.30;0.30;;;2.00;99.90;;;;;;4977866;28;20029;-73
2021/11/29 00:42:04;;;;;;;0.40;0.40;;;2.10;99.90;;;;;;4977852;28;20400;-73
2021/11/29 00:44:30;;;;;;;0.40;0.40;;;2.00;99.90;;;;;;4995197;28;20405;-73
2021/11/29 00:46:56;;;;;;;0.40;0.40;;;1.90;99.90;;;;;;4977865;28;20096;-73
2021/11/29 00:49:22;;;;;;;0.30;0.30;;;1.80;99.90;;;;;;4995071;28;20026;-73
2021/11/29 00:51:48;;;;;;;0.47;0.47;;;1.80;99.90;;;;;;4977624;28;20056;-73
2021/11/29 00:54:14;;;;;;;1.85;1.65;;;1.80;99.90;;;;;;4977585;28;20026;-73
2021/11/29 00:56:41;;;;;;;0.30;0.30;;;1.90;99.90;;;;;;4994980;28;20022;-73
2021/11/29 00:59:06;;;;;;;0.60;0.60;;;2.00;99.90;;;;;;4977555;28;20026;-73
2021/11/29 01:01:32;;;;;;;0.32;0.32;;;2.00;99.90;;;;;;4977542;28;20026;-73
2021/11/29 01:03:59;;;;;;;1.23;1.13;;;2.10;99.90;;;;;;4994982;28;20030;-73
2021/11/29 01:06:24;;;;;;;7.13;2.10;;;2.00;99.90;;;;;;4994780;28;20028;-73
2021/11/29 01:08:50;;;;;;;0.30;0.30;;;1.80;99.90;;;;;;4995037;28;20026;-73
2021/11/29 01:11:16;;;;;;;0.55;0.55;;;1.80;99.90;;;;;;4994824;28;20409;-73
2021/11/29 01:13:42;;;;;;;3.20;1.27;;;1.90;99.90;;;;;;4994843;28;20090;-73
2021/11/29 01:16:07;;;;;;;0.30;0.30;;;2.00;99.90;;;;;;4994622;28;20018;-73
2021/11/29 01:18:33;;;;;;;0.30;0.30;;;1.80;99.90;;;;;;4961067;28;20038;-73
2021/11/29 01:20:59;;;;;;;0.68;0.68;;;1.80;99.90;;;;;;4994602;28;20026;-73
2021/11/29 01:23:26;;;;;;;0.30;0.30;;;2.00;99.90;;;;;;4994652;28;20030;-73
2021/11/29 01:25:53;;;;;;;1.75;1.65;;;1.90;99.90;;;;;;4977054;28;20121;-73
2021/11/29 01:28:20;;;;;;;0.38;0.38;;;2.00;99.90;;;;;;4994502;28;20022;-73
2021/11/29 01:30:46;;;;;;;0.30;0.30;;;2.10;99.90;;;;;;4993574;28;20041;-73
2021/11/29 01:33:12;;;;;;;0.30;0.30;;;2.20;99.90;;;;;;4994123;28;20026;-73
2021/11/29 01:35:38;;;;;;;0.40;0.40;;;2.20;99.90;;;;;;4994416;28;20022;-73
2021/11/29 01:38:04;;;;;;;0.50;0.50;;;2.10;99.90;;;;;;4960779;28;20057;-73
2021/11/29 01:40:30;;;;;;;0.60;0.60;;;1.90;99.90;;;;;;4994240;28;20026;-73
2021/11/29 01:43:10;;;;;;;0.30;0.30;;;1.80;99.90;;;;;;4976834;28;20053;-73
2021/11/29 01:45:47;;;;;;;0.30;0.30;;;1.80;99.90;;;;;;4994079;28;20161;-73
2021/11/29 01:48:13;;;;;;;0.30;0.30;;;1.70;99.90;;;;;;4976759;28;20053;-73
2021/11/29 01:50:42;;;;;;;0.40;0.40;;;1.80;99.90;;;;;;4994060;28;20414;-73
2021/11/29 01:53:09;;;;;;;1.30;1.30;;;1.70;99.90;;;;;;4994005;28;20117;-73
2021/11/29 01:55:37;;;;;;;0.40;0.40;;;1.60;99.90;;;;;;4976365;28;20367;-73
2021/11/29 01:58:04;;;;;;;0.50;0.50;;;1.80;99.90;;;;;;4993890;28;20085;-73
2021/11/29 02:00:32;;;;;;;0.30;0.30;;;1.90;99.90;;;;;;4993727;28;20029;-73
2021/11/29 02:02:58;;;;;;;5.88;3.33;;;1.80;99.90;;;;;;4976489;28;20129;-73
2021/11/29 02:05:25;;;;;;;0.40;0.40;;;1.90;99.90;;;;;;4976356;28;20304;-73
2021/11/29 02:07:51;;;;;;;0.30;0.30;;;2.00;99.90;;;;;;4993761;28;20049;-73
2021/11/29 02:10:20;;;;;;;0.28;0.28;;;1.90;99.90;;;;;;4993716;28;20434;-73
2021/11/29 02:12:46;;;;;;;0.60;0.38;;;1.80;99.90;;;;;;4976172;28;20409;-73
2021/11/29 02:15:12;;;;;;;0.50;0.50;;;2.00;99.90;;;;;;4993509;28;20033;-73
2021/11/29 02:17:40;;;;;;;0.40;0.40;;;2.00;99.90;;;;;;4975924;28;20034;-73
2021/11/29 02:20:07;;;;;;;2.35;1.38;;;1.80;99.90;;;;;;4993548;28;20029;-73
2021/11/29 02:22:34;;;;;;;0.30;0.30;;;1.80;99.90;;;;;;4976162;28;20386;-73
2021/11/29 02:25:00;;;;;;;2.83;1.30;;;1.70;99.90;;;;;;4976091;28;20022;-73
2021/11/29 02:27:26;;;;;;;0.90;0.82;;;1.70;99.90;;;;;;4959943;28;20335;-73
2021/11/29 02:29:54;;;;;;;0.38;0.38;;;1.70;99.90;;;;;;4993363;28;20092;-73
2021/11/29 02:32:20;;;;;;;0.45;0.45;;;1.90;99.90;;;;;;4993360;28;20018;-73
2021/11/29 02:34:46;;;;;;;0.47;0.47;;;2.10;99.90;;;;;;4992785;28;20038;-73
2021/11/29 02:37:12;;;;;;;0.30;0.30;;;2.20;99.90;;;;;;4993286;28;20031;-73
2021/11/29 02:39:37;;;;;;;0.30;0.30;;;2.30;99.90;;;;;;4993172;28;20034;-73
2021/11/29 02:42:07;;;;;;;0.60;0.60;;;2.30;99.90;;;;;;4993122;28;20026;-73
2021/11/29 02:44:33;;;;;;;0.30;0.30;;;2.30;99.90;;;;;;4975518;28;20023;-73
2021/11/29 02:46:59;;;;;;;0.30;0.30;;;2.40;99.90;;;;;;4975752;28;20077;-73
2021/11/29 02:49:25;;;;;;;0.45;0.45;;;2.50;99.90;;;;;;4993070;28;20089;-73
2021/11/29 02:51:57;;;;;;;0.40;0.40;;;2.40;99.90;;;;;;4992971;28;20030;-73
2021/11/29 02:54:26;;;;;;;0.30;0.30;;;2.30;99.90;;;;;;4992958;28;20054;-73
2021/11/29 02:56:55;;;;;;;0.30;0.30;;;2.40;99.90;;;;;;4975400;28;20509;-73
2021/11/29 02:59:23;;;;;;;0.65;0.65;;;2.50;99.90;;;;;;4992880;28;20046;-73
2021/11/29 03:01:52;;;;;;;0.45;0.45;;;2.40;99.90;;;;;;4975445;28;20019;-73
2021/11/29 03:04:19;;;;;;;0.20;0.20;;;2.40;99.90;;;;;;4975439;28;20118;-73
2021/11/29 03:06:45;;;;;;;0.30;0.30;;;2.40;99.90;;;;;;4992691;28;20389;-73
2021/11/29 03:09:11;;;;;;;5.47;3.72;;;2.20;99.90;;;;;;4992816;28;20030;-73
2021/11/29 03:11:37;;;;;;;0.30;0.30;;;2.10;99.90;;;;;;4959183;28;20026;-73
2021/11/29 03:14:03;;;;;;;0.30;0.30;;;2.00;99.90;;;;;;4992632;28;20028;-73
2021/11/29 03:16:29;;;;;;;0.60;0.60;;;2.10;99.90;;;;;;4958947;28;20026;-73
2021/11/29 03:18:55;;;;;;;0.85;0.85;;;2.20;99.90;;;;;;4992654;28;20031;-73
2021/11/29 03:21:23;;;;;;;3.00;0.90;;;2.10;99.90;;;;;;4975404;28;20180;-73
2021/11/29 03:23:51;;;;;;;0.40;0.40;;;2.00;99.90;;;;;;4975344;28;20398;-73
2021/11/29 03:26:19;;;;;;;0.40;0.40;;;2.00;99.90;;;;;;4958872;28;20026;-73
2021/11/29 03:28:50;;;;;;;0.30;0.30;;;2.00;99.90;;;;;;4974991;28;20165;-73
2021/11/29 03:31:17;;;;;;;0.30;0.30;;;2.20;99.90;;;;;;4975056;28;20092;-73
2021/11/29 03:33:44;;;;;;;1.08;1.08;;;2.10;99.90;;;;;;4974850;28;20084;-73
2021/11/29 03:36:10;;;;;;;0.82;0.82;;;2.00;99.90;;;;;;4974858;28;20022;-73
2021/11/29 03:38:37;;;;;;;1.67;1.58;;;1.90;99.90;;;;;;4975019;28;20030;-73
2021/11/29 03:41:04;;;;;;;0.57;0.57;;;1.80;99.90;;;;;;4974999;28;20034;-73
2021/11/29 03:43:30;;;;;;;0.30;0.30;;;1.70;99.90;;;;;;4958877;28;20362;-73
2021/11/29 03:45:55;;;;;;;0.57;0.57;;;1.90;99.90;;;;;;4974946;28;20110;-73
2021/11/29 03:48:22;;;;;;;0.35;0.35;;;1.80;99.90;;;;;;4992349;28;20105;-73
2021/11/29 03:50:48;;;;;;;2.22;2.05;;;1.90;99.90;;;;;;4974858;28;20042;-73
2021/11/29 03:53:14;;;;;;;3.83;3.53;;;2.00;99.90;;;;;;4992967;28;20034;-73
2021/11/29 03:55:39;;;;;;;1.63;1.23;;;1.70;99.90;;;;;;4996129;28;20022;-73
2021/11/29 03:58:06;;;;;;;0.40;0.40;;;1.80;99.90;;;;;;4978792;28;20022;-73
2021/11/29 04:00:32;;;;;;;0.60;0.60;;;1.90;99.90;;;;;;4978672;28;20027;-73
2021/11/29 04:02:58;;;;;;;1.08;1.08;;;1.70;99.90;;;;;;4996124;28;20034;-73
2021/11/29 04:05:24;;;;;;;1.55;1.45;;;1.80;99.90;;;;;;4995946;28;20034;-73
2021/11/29 04:07:50;;;;;;;0.40;0.40;;;1.80;99.90;;;;;;4978439;28;20077;-73
2021/11/29 04:10:16;;;;;;;0.32;0.32;;;1.80;99.90;;;;;;4978878;28;20034;-73
2021/11/29 04:12:42;;;;;;;2.17;1.95;;;1.80;99.90;;;;;;4995847;28;20533;-73
2021/11/29 04:15:08;;;;;;;4.03;2.80;;;1.80;99.90;;;;;;4978318;28;20034;-73
2021/11/29 04:17:35;;;;;;;0.30;0.30;;;1.80;99.90;;;;;;4978327;28;20570;-73
2021/11/29 04:20:02;;;;;;;1.35;1.33;;;1.70;99.90;;;;;;4978274;28;20397;-73
2021/11/29 04:22:28;;;;;;;0.32;0.32;;;1.70;99.90;;;;;;4978318;28;20096;-73
2021/11/29 04:24:57;;;;;;;1.08;1.08;;;1.80;99.90;;;;;;4995566;28;20030;-73
2021/11/29 04:27:22;;;;;;;0.70;0.70;;;1.80;99.90;;;;;;4995664;28;20034;-73
2021/11/29 04:29:49;;;;;;;0.35;0.35;;;1.90;99.90;;;;;;4978227;28;20113;-73
2021/11/29 04:32:15;;;;;;;0.30;0.30;;;2.00;99.90;;;;;;4995574;28;20065;-73
2021/11/29 04:34:41;;;;;;;0.30;0.30;;;1.80;99.90;;;;;;4995119;28;20065;-73
2021/11/29 04:37:07;;;;;;;0.93;0.93;;;1.80;99.90;;;;;;4995501;28;20367;-73
2021/11/29 04:39:34;;;;;;;0.30;0.30;;;2.00;99.90;;;;;;4961865;28;20031;-73
2021/11/29 04:42:01;;;;;;;0.32;0.32;;;1.90;99.90;;;;;;4995387;28;20388;-73
2021/11/29 04:44:27;;;;;;;1.00;1.00;;;1.90;99.90;;;;;;4978042;28;20092;-73
2021/11/29 04:46:53;;;;;;;0.90;0.90;;;1.80;99.90;;;;;;4995279;28;20101;-73
2021/11/29 04:49:19;;;;;;;0.52;0.47;;;1.90;99.90;;;;;;4995295;28;20393;-73
2021/11/29 04:51:45;;;;;;;0.85;0.85;;;1.80;99.90;;;;;;4961685;28;20030;-73
2021/11/29 04:54:11;;;;;;;1.60;1.50;;;1.80;99.90;;;;;;4977737;28;20035;-73
2021/11/29 04:56:38;;;;;;;0.32;0.32;;;1.70;99.90;;;;;;4995026;28;20039;-73
2021/11/29 04:59:04;;;;;;;0.30;0.30;;;1.60;99.90;;;;;;4995091;28;20026;-73
2021/11/29 05:01:30;;;;;;;0.40;0.40;;;1.60;99.90;;;;;;4994878;28;20034;-73
2021/11/29 05:03:56;;;;;;;1.05;1.05;;;1.50;99.90;;;;;;4994815;28;20026;-73
2021/11/29 05:06:22;;;;;;;0.30;0.30;;;1.60;99.90;;;;;;4993816;28;20397;-73
2021/11/29 05:08:47;;;;;;;0.65;0.65;;;1.80;99.90;;;;;;4977566;28;20026;-73
2021/11/29 05:11:13;;;;;;;0.95;0.95;;;1.80;99.90;;;;;;4994819;28;20475;-73
2021/11/29 05:13:39;;;;;;;0.30;0.30;;;1.90;99.90;;;;;;4977582;28;20057;-73
2021/11/29 05:16:05;;;;;;;0.30;0.30;;;2.00;99.90;;;;;;4994653;28;20026;-74
2021/11/29 05:18:31;;;;;;;2.05;1.95;;;2.00;99.90;;;;;;4977218;28;20592;-74
2021/11/29 05:20:57;;;;;;;1.45;1.42;;;2.10;99.90;;;;;;4994656;28;20018;-74
2021/11/29 05:23:23;;;;;;;1.27;1.27;;;1.90;99.90;;;;;;4994545;28;20022;-73
2021/11/29 05:25:49;;;;;;;1.65;1.55;;;2.00;99.90;;;;;;4976947;28;20113;-73
2021/11/29 05:28:15;;;;;;;0.30;0.30;;;1.80;99.90;;;;;;4994531;28;20482;-74
2021/11/29 05:30:41;;;;;;;0.30;0.30;;;1.80;99.90;;;;;;4994393;28;20483;-73
2021/11/29 05:33:07;;;;;;;0.30;0.30;;;1.60;99.90;;;;;;4976896;28;20191;-73
2021/11/29 05:35:33;;;;;;;4.63;2.00;;;1.70;99.90;;;;;;4994308;28;20069;-74
2021/11/29 05:37:59;;;;;;;0.30;0.30;;;1.60;99.90;;;;;;4976899;28;20030;-74
2021/11/29 05:40:25;;;;;;;1.15;1.15;;;1.60;99.90;;;;;;4994266;28;20027;-73
2021/11/29 05:42:51;;;;;;;0.50;0.50;;;1.60;99.90;;;;;;4994089;28;20034;-73
2021/11/29 05:45:17;;;;;;;0.65;0.50;;;1.70;99.90;;;;;;4976909;28;20137;-74
2021/11/29 05:47:43;;;;;;;8.30;2.95;;;1.60;99.90;;;;;;4994117;28;20097;-73
2021/11/29 05:50:12;;;;;;;1.30;1.30;;;1.50;99.90;;;;;;4976455;28;20022;-73
2021/11/29 05:52:38;;;;;;;1.27;1.15;;;1.50;99.90;;;;;;4976600;28;20026;-73
2021/11/29 05:55:07;;;;;;;1.15;1.15;;;1.40;99.90;;;;;;4993862;28;20097;-73
2021/11/29 05:57:33;;;;;;;1.67;1.58;;;1.50;99.90;;;;;;4993928;28;20502;-73
2021/11/29 05:59:59;;;;;;;0.40;0.40;;;1.50;99.90;;;;;;4993922;28;20478;-73
2021/11/29 06:02:25;;;;;;;0.40;0.40;;;1.70;99.90;;;;;;4993852;28;20045;-73
2021/11/29 06:04:50;;;;;;;0.40;0.40;;;1.60;99.90;;;;;;4993604;28;20102;-73
2021/11/29 06:07:16;;;;;;;0.35;0.35;;;1.60;99.90;;;;;;4993688;28;20041;-74
2021/11/29 06:09:42;;;;;;;0.55;0.55;;;1.70;99.90;;;;;;4994156;28;20033;-73
2021/11/29 06:12:08;;;;;;;0.80;0.80;;;1.60;99.90;;;;;;4993541;28;20034;-73
2021/11/29 06:14:34;;;;;;;0.50;0.50;;;1.40;99.90;;;;;;4993490;28;20027;-74
2021/11/29 06:16:59;;;;;;;13.75;4.78;;;1.50;99.90;;;;;;4993148;28;20027;-73
2021/11/29 06:19:25;;;;;;;3.83;2.10;;;1.40;99.90;;;;;;4976295;28;20106;-73
2021/11/29 06:21:51;;;;;;;0.38;0.38;;;1.30;99.90;;;;;;4993420;28;20046;-73
2021/11/29 06:24:17;;;;;;;1.85;1.80;;;1.20;99.90;;;;;;4993441;28;20030;-74
2021/11/29 06:26:42;;;;;;;0.30;0.30;;;1.40;99.90;;;;;;4975722;28;20038;-73
2021/11/29 06:29:08;;;;;;;0.30;0.30;;;1.20;99.90;;;;;;4993360;28;20030;-73
2021/11/29 06:31:34;;;;;;;0.80;0.80;;;1.20;99.90;;;;;;4975775;28;20026;-74
2021/11/29 06:34:00;;;;;;;0.30;0.30;;;1.20;99.90;;;;;;4993064;28;20433;-73
2021/11/29 06:36:27;;;;;;;0.30;0.30;;;1.30;99.90;;;;;;4993060;28;20035;-74
2021/11/29 06:38:55;;;;;;;0.40;0.40;;;1.30;99.90;;;;;;4994762;28;20025;-73
2021/11/29 06:41:25;;;;;;;0.30;0.30;;;1.50;99.90;;;;;;4998895;28;20109;-73
2021/11/29 06:43:51;;;;;;;1.20;1.15;;;1.60;99.90;;;;;;4992070;28;20111;-73
2021/11/29 06:46:17;;;;;;;0.40;0.40;;;1.50;99.90;;;;;;5010271;28;20026;-74
2021/11/29 06:48:43;;;;;;;2.10;1.48;;;1.50;99.90;;;;;;4975606;28;20029;-73
2021/11/29 06:51:10;;;;;;;1.98;1.30;;;1.40;99.90;;;;;;4991661;28;20027;-73
2021/11/29 06:53:36;;;;;;;0.40;0.40;;;1.30;99.90;;;;;;4975407;28;20033;-73
2021/11/29 06:56:04;;;;;;;0.40;0.40;;;1.40;99.90;;;;;;5004771;28;20481;-73
2021/11/29 06:58:29;;;;;;;1.25;0.98;;;1.50;99.90;;;;;;5012411;28;20045;-73
2021/11/29 07:00:56;;;;;;;0.40;0.40;;;1.70;99.90;;;;;;5012403;28;20029;-73
2021/11/29 07:03:22;;;;;;;0.30;0.30;;;1.80;99.90;;;;;;5012346;28;20486;-75
2021/11/29 07:05:51;;;;;;;0.50;0.50;;;1.80;99.90;;;;;;4994404;28;20056;-73
2021/11/29 07:08:18;;;;;;;0.50;0.50;;;1.70;99.90;;;;;;4994515;28;20125;-72
2021/11/29 07:10:44;;;;;;;0.35;0.35;;;1.80;99.90;;;;;;5003599;28;20413;-73
2021/11/29 07:13:12;;;;;;;0.30;0.30;;;1.90;99.90;;;;;;4992382;28;20057;-73
2021/11/29 07:15:39;;;;;;;0.85;0.85;;;1.90;99.90;;;;;;4992516;28;20081;-73
2021/11/29 07:18:07;;;;;;;0.30;0.30;;;1.90;99.90;;;;;;4999696;28;20037;-74
2021/11/29 07:20:33;;;;;;;1.75;1.65;;;1.90;99.90;;;;;;5011954;28;20314;-73
2021/11/29 07:22:59;;;;;;;4.03;1.42;;;2.00;99.90;;;;;;4993100;28;20573;-74
2021/11/29 07:25:25;;;;;;;0.70;0.70;;;1.90;99.90;;;;;;4992310;28;20105;-73
2021/11/29 07:27:51;;;;;;;2.40;2.30;;;1.90;99.90;;;;;;4992625;28;20018;-74
2021/11/29 07:30:19;;;;;;;0.85;0.85;;;1.90;99.90;;;;;;4977013;28;20049;-74
2021/11/29 07:32:45;;;;;;;0.40;0.40;;;2.00;99.90;;;;;;5012030;28;20097;-74
2021/11/29 07:35:11;;;;;;;1.70;1.35;;;2.10;99.90;;;;;;5001817;28;20444;-74
2021/11/29 07:37:37;;;;;;;0.60;0.60;;;1.90;99.90;;;;;;4999598;28;20106;-73
2021/11/29 07:40:05;;;;;;;1.35;0.68;;;1.80;99.90;;;;;;4998529;28;20022;-74
2021/11/29 07:42:32;;;;;;;0.68;0.68;;;1.80;99.90;;;;;;4992237;28;20470;-74
2021/11/29 07:44:58;;;;;;;1.65;1.20;;;1.80;99.90;;;;;;4996143;28;20436;-74
2021/11/29 07:47:25;;;;;;;0.35;0.35;;;1.90;99.90;;;;;;4992270;28;20486;-73
2021/11/29 07:49:52;;;;;;;0.30;0.30;;;1.90;99.90;;;;;;4974911;28;20097;-74
2021/11/29 07:52:18;;;;;;;0.30;0.30;;;1.90;99.90;;;;;;4990840;28;20053;-73
2021/11/29 07:54:44;;;;;;;3.63;2.35;;;1.80;99.90;;;;;;4990348;28;20433;-73
2021/11/29 07:57:13;;;;;;;0.40;0.40;;;1.80;99.90;;;;;;4990841;28;20129;-73
2021/11/29 07:59:39;;;;;;;0.40;0.40;;;1.90;99.90;;;;;;4990751;28;20027;-73
2021/11/29 08:02:05;;;;;;;6.22;0.98;;;1.90;99.90;;;;;;5010497;28;20024;-73
2021/11/29 08:04:31;;;;;;;0.30;0.30;;;1.70;99.90;;;;;;4977105;28;20061;-71
2021/11/29 08:06:57;;;;;;;0.30;0.30;;;1.60;99.90;;;;;;4985832;28;20525;-71
2021/11/29 08:09:22;;;;;;;0.40;0.40;;;1.70;99.90;;;;;;5005025;28;20081;-71
2021/11/29 08:11:48;;;;;;;3.20;1.55;;;1.80;99.90;;;;;;4992826;28;20054;-73
2021/11/29 08:14:14;;;;;;;3.63;1.75;;;1.80;99.90;;;;;;4990356;28;20397;-73
2021/11/29 08:16:40;;;;;;;3.30;2.40;;;2.00;99.90;;;;;;4990450;28;20514;-73
2021/11/29 08:19:05;;;;;;;0.30;0.30;;;1.90;99.90;;;;;;4992014;28;20057;-73
2021/11/29 08:21:31;;;;;;;1.95;1.85;;;1.60;99.90;;;;;;4984154;28;20056;-73
2021/11/29 08:23:57;;;;;;;6.10;2.90;;;1.70;99.90;;;;;;4991939;28;20084;-73
2021/11/29 08:26:23;;;;;;;0.40;0.40;;;1.70;99.90;;;;;;4981109;28;20033;-73
2021/11/29 08:28:48;;;;;;;0.30;0.30;;;1.50;99.90;;;;;;4957683;28;20551;-73
2021/11/29 08:31:14;;;;;;;0.45;0.45;;;1.80;99.90;;;;;;4990360;28;20037;-73
2021/11/29 08:33:40;;;;;;;4.15;1.15;;;2.00;99.90;;;;;;4990780;28;20042;-73
2021/11/29 08:36:06;;;;;;;0.75;0.75;;;2.00;99.90;;;;;;4972908;28;20026;-73
2021/11/29 08:38:34;;;;;;;0.85;0.85;;;1.80;99.90;;;;;;4991088;28;20023;-73
2021/11/29 08:41:01;;;;;;;0.73;0.73;;;1.60;99.90;;;;;;4993926;28;20450;-73
2021/11/29 08:43:28;;;;;;;0.85;0.85;;;1.70;99.90;;;;;;4994396;28;20035;-73
2021/11/29 08:45:54;;;;;;;0.30;0.30;;;1.90;99.90;;;;;;4993826;28;20386;-73
2021/11/29 08:48:21;;;;;;;4.82;3.22;;;2.10;99.90;;;;;;4994601;28;20034;-73
2021/11/29 08:50:50;;;;;;;3.28;3.08;;;1.90;99.90;;;;;;4993698;28;20030;-73
2021/11/29 08:53:21;;;;;;;0.82;0.82;;;1.70;99.90;;;;;;4976544;28;20513;-73
2021/11/29 08:55:47;;;;;;;0.40;0.40;;;1.90;99.90;;;;;;4993788;28;20022;-73
2021/11/29 08:58:13;;;;;;;1.17;1.17;;;2.00;99.90;;;;;;4994157;28;20030;-73
2021/11/29 09:00:42;;;;;;;0.40;0.40;;;1.90;99.90;;;;;;4993940;28;20073;-73
2021/11/29 09:03:09;;;;;;;0.32;0.32;;;1.90;99.90;;;;;;4993741;28;20034;-72
2021/11/29 09:05:41;;;;;;;0.30;0.30;;;2.00;99.90;;;;;;4975847;28;20509;-72
2021/11/29 09:08:06;;;;;;;;;;;2.10;99.90;;;;;;4976987;28;20117;-73
2021/11/29 09:10:33;;;;;;;0.30;0.30;;;2.20;99.90;;;;;;4976790;28;19992;-73
2021/11/29 09:12:59;;;;;;;9.00;5.25;;;2.30;99.90;;;;;;4993414;28;20121;-73
2021/11/29 09:15:25;;;;;;;0.60;0.60;;;2.30;99.90;;;;;;4975733;28;20093;-73
2021/11/29 09:17:51;;;;;;;0.30;0.30;;;2.40;99.90;;;;;;4993238;28;20113;-73
2021/11/29 09:20:22;;;;;;;1.23;0.88;;;2.50;99.90;;;;;;4975961;28;20109;-73
2021/11/29 09:22:49;;;;;;;0.35;0.35;;;2.20;99.90;;;;;;4979948;28;20030;-73
2021/11/29 09:25:16;;;;;;;4.85;2.75;;;2.20;99.90;;;;;;4976008;28;20022;-73
2021/11/29 09:27:43;;;;;;;15.35;14.25;;;2.00;99.90;;;;;;4992902;28;20100;-73
2021/11/29 09:30:11;;;;;;;0.50;0.50;;;2.00;99.90;;;;;;4959549;28;20058;-73
2021/11/29 09:32:38;;;;;;;2.60;2.40;;;2.00;99.90;;;;;;4992945;28;20493;-73
2021/11/29 09:35:15;;;;;;;1.50;1.40;;;2.00;99.90;;;;;;4975609;28;20081;-73
2021/11/29 09:37:43;;;;;;;3.58;2.40;;;1.60;99.90;;;;;;4988691;28;20050;-73
2021/11/29 09:40:20;;;;;;;0.40;0.40;;;1.40;99.90;;;;;;4975866;28;20054;-75
2021/11/29 09:42:46;;;;;;;6.70;1.58;;;1.60;99.90;;;;;;4991869;28;20474;-72
2021/11/29 09:45:13;;;;;;;0.30;0.30;;;1.60;99.90;;;;;;4992825;28;20018;-72
2021/11/29 09:47:40;;;;;;;1.73;1.42;;;1.70;99.90;;;;;;4992885;28;20034;-71
2021/11/29 09:50:07;;;;;;;0.85;0.63;;;1.70;99.90;;;;;;4993007;28;20026;-72
2021/11/29 09:52:34;;;;;;;0.30;0.30;;;1.90;99.90;;;;;;4974479;28;20032;-73
2021/11/29 09:55:00;;;;;;;1.50;1.40;;;2.00;99.90;;;;;;4992577;28;20045;-72
2021/11/29 09:57:26;;;;;;;0.85;0.85;;;2.20;99.90;;;;;;4975230;28;20105;-72
2021/11/29 09:59:52;;;;;;;5.13;2.25;;;2.20;99.90;;;;;;4993029;28;20101;-72
2021/11/29 10:02:18;;;;;;;0.43;0.43;;;2.20;99.90;;;;;;4976440;28;20026;-71
2021/11/29 10:04:49;;;;;;;6.75;1.50;;;2.10;99.90;;;;;;4975239;28;20036;-72
2021/11/29 10:07:37;;;;;;;1.48;1.38;;;2.20;99.90;;;;;;4975165;28;20026;-72
2021/11/29 10:10:30;;;;;;;0.30;0.30;;;2.40;99.90;;;;;;4993016;28;20045;-72
2021/11/29 10:13:06;;;;;;;2.17;1.95;;;2.60;99.90;;;;;;4992454;28;20034;-72
2021/11/29 10:15:37;;;;;;;3.88;1.23;;;2.70;99.90;;;;;;4992676;28;20502;-72
2021/11/29 10:18:09;;;;;;;0.63;0.63;;;2.50;99.90;;;;;;4981689;28;20064;-72
2021/11/29 10:20:55;;;;;;;1.75;1.00;;;2.50;99.90;;;;;;4992356;28;20030;-72
2021/11/29 10:23:41;;;;;;;0.85;0.85;;;2.50;99.90;;;;;;4978545;28;20034;-72
2021/11/29 10:26:17;;;;;;;0.75;0.75;;;2.60;99.90;;;;;;4993153;28;20109;-72
2021/11/29 10:28:46;;;;;;;4.50;3.22;;;2.70;99.90;;;;;;4991900;28;20129;-71
2021/11/29 10:31:17;;;;;;;4.22;2.92;;;2.30;99.90;;;;;;4974632;28;20436;-71
2021/11/29 10:33:48;;;;;;;1.13;1.10;;;2.20;99.90;;;;;;4991091;28;20037;-71
2021/11/29 10:36:15;;;;;;;;;;;2.00;99.90;;;;;;4992594;28;20023;-72
2021/11/29 10:38:42;;;;;;;0.52;0.52;;;2.10;99.90;;;;;;4974332;28;19944;-72
2021/11/29 10:41:10;;;;;;;1.38;0.82;;;2.20;99.90;;;;;;4974804;28;20501;-73
2021/11/29 10:43:41;;;;;;;0.60;0.60;;;2.20;99.90;;;;;;4991643;28;20035;-72
2021/11/29 10:46:27;;;;;;;6.63;2.38;;;2.00;99.90;;;;;;4990794;28;20045;-72
2021/11/29 10:48:55;;;;;;;2.25;2.15;;;2.00;99.90;;;;;;4974777;28;20036;-71
2021/11/29 10:51:22;;;;;;;1.05;1.05;;;1.80;99.90;;;;;;4991604;28;20096;-71
2021/11/29 10:53:53;;;;;;;0.38;0.38;;;1.90;99.90;;;;;;4982179;28;20398;-72
2021/11/29 10:56:20;;;;;;;2.35;2.08;;;2.00;99.90;;;;;;4958093;28;20109;-72
2021/11/29 10:58:49;;;;;;;0.75;0.75;;;2.20;99.90;;;;;;4977935;28;20050;-72
2021/11/29 11:01:17;;;;;;;6.88;5.68;;;2.30;99.90;;;;;;4987492;28;20061;-72
2021/11/29 11:03:55;;;;;;;10.27;5.72;;;2.20;99.90;;;;;;4974131;28;20621;-71
2021/11/29 11:06:30;;;;;;;0.43;0.43;;;1.80;99.90;;;;;;4974339;28;20033;-72
2021/11/29 11:08:56;;;;;;;0.40;0.40;;;1.70;99.90;;;;;;4971204;28;20031;-73
2021/11/29 11:11:30;;;;;;;3.20;2.42;;;1.70;99.90;;;;;;4974887;28;20088;-71
2021/11/29 11:13:58;;;;;;;2.58;2.40;;;1.90;99.90;;;;;;4976524;28;20026;-71
2021/11/29 11:16:43;;;;;;;0.60;0.60;;;1.90;99.90;;;;;;4973419;28;20022;-71
2021/11/29 11:19:11;;;;;;;4.05;1.50;;;1.60;99.90;;;;;;4992435;28;20031;-73
2021/11/29 11:21:37;;;;;;;1.80;0.90;;;1.90;99.90;;;;;;4990033;28;20019;-71
2021/11/29 11:24:30;;;;;;;2.50;2.20;;;1.70;99.90;;;;;;4993505;28;20030;-71
2021/11/29 11:26:57;;;;;;;0.50;0.50;;;1.80;99.90;;;;;;4989585;28;20398;-71
2021/11/29 11:29:38;;;;;;;0.52;0.52;;;1.90;99.90;;;;;;4994812;28;20026;-72
2021/11/29 11:32:15;;;;;;;0.30;0.30;;;1.90;99.90;;;;;;4977656;28;20098;-72
2021/11/29 11:34:44;;;;;;;4.20;3.10;;;2.10;99.90;;;;;;4992599;28;20036;-71
2021/11/29 11:37:11;;;;;;;5.00;3.38;;;1.90;99.90;;;;;;4991074;28;20058;-71
2021/11/29 11:39:38;;;;;;;5.43;3.83;;;1.70;99.90;;;;;;4973333;28;20018;-71
2021/11/29 11:42:05;;;;;;;9.77;4.75;;;1.70;99.90;;;;;;4989741;28;20015;-71
2021/11/29 11:44:34;;;;;;;1.65;1.45;;;1.80;99.90;;;;;;4991070;28;20084;-72
2021/11/29 11:47:01;;;;;;;1.95;1.85;;;1.70;99.90;;;;;;4994122;28;20022;-71
2021/11/29 11:49:28;;;;;;;1.25;1.10;;;1.90;99.90;;;;;;4989897;28;20105;-71
2021/11/29 11:51:54;;;;;;;3.78;3.42;;;2.00;99.90;;;;;;4971974;28;20026;-72
2021/11/29 11:54:20;;;;;;;0.77;0.77;;;2.10;99.90;;;;;;4971215;28;20049;-72
2021/11/29 11:56:46;;;;;;;4.57;3.05;;;2.00;99.90;;;;;;4971935;28;20026;-71
2021/11/29 11:59:14;;;;;;;1.25;1.20;;;2.00;99.90;;;;;;4989300;28;20559;-72
2021/11/29 12:01:46;;;;;;;8.77;4.60;;;2.10;99.90;;;;;;4989732;28;20054;-71
2021/11/29 12:04:17;;;;;;;0.55;0.55;;;2.00;99.90;;;;;;4952033;28;20113;-71
2021/11/29 12:06:48;;;;;;;2.55;1.80;;;2.00;99.90;;;;;;4973387;28;20034;-72
2021/11/29 12:09:15;;;;;;;3.42;1.95;;;2.00;99.90;;;;;;4973501;28;20042;-71
2021/11/29 12:11:49;;;;;;;3.63;2.75;;;2.20;99.90;;;;;;4973583;28;20037;-72
2021/11/29 12:14:20;;;;;;;9.82;4.20;;;2.20;99.90;;;;;;4991816;28;20026;-72
2021/11/29 12:16:56;;;;;;;0.40;0.40;;;2.20;99.90;;;;;;4976931;28;20494;-72
2021/11/29 12:19:26;;;;;;;5.15;2.95;;;2.30;99.90;;;;;;4994168;28;20030;-72
2021/11/29 12:21:54;;;;;;;8.43;5.80;;;2.20;99.90;;;;;;4994553;28;20018;-72
2021/11/29 12:24:24;;;;;;;6.35;2.72;;;2.00;99.90;;;;;;4980141;28;20026;-72
2021/11/29 12:27:02;;;;;;;4.57;2.90;;;2.00;99.90;;;;;;4994108;28;20069;-72
2021/11/29 12:29:28;;;;;;;3.60;1.42;;;1.80;99.90;;;;;;4976818;28;20027;-71
2021/11/29 12:32:03;;;;;;;0.55;0.55;;;1.70;99.90;;;;;;4994588;28;20038;-72
2021/11/29 12:34:44;;;;;;;1.42;1.35;;;1.60;99.90;;;;;;4993133;28;20018;-71
2021/11/29 12:37:20;;;;;;;2.95;1.77;;;1.30;99.90;;;;;;4996860;28;20497;-72
2021/11/29 12:39:47;;;;;;;9.95;3.53;;;1.40;99.90;;;;;;4982460;28;20054;-72
2021/11/29 12:42:19;;;;;;;3.75;1.88;;;1.50;99.90;;;;;;4977406;28;20072;-72
2021/11/29 12:44:45;;;;;;;;;;;1.60;99.90;;;;;;4977624;28;20023;-71
2021/11/29 12:47:46;;;;;;;2.33;2.10;;;1.60;99.90;;;;;;4994159;28;20388;-71
2021/11/29 12:50:39;;;;;;;0.77;0.77;;;1.60;99.90;;;;;;4974795;28;20038;-74
2021/11/29 12:53:28;;;;;;;0.30;0.30;;;1.80;99.90;;;;;;4993790;28;20092;-72
2021/11/29 12:56:15;;;;;;;6.50;1.95;;;2.00;99.90;;;;;;4993986;28;20022;-71
2021/11/29 12:58:55;;;;;;;0.95;0.77;;;1.80;99.90;;;;;;4992889;28;20470;-72
2021/11/29 13:01:22;;;;;;;0.47;0.47;;;1.80;99.90;;;;;;4980971;28;20058;-72